createdAt,value
2022-09-20T00:01:07.904Z,99942.59
2022-09-20T00:03:36.536Z,99947.84
2022-09-20T00:06:06.348Z,99943.22
2022-09-20T00:08:35.688Z,99954.19
2022-09-20T00:11:04.082Z,99937.59
2022-09-20T00:13:32.212Z,99947.31
2022-09-20T00:16:00.876Z,99943.03
2022-09-20T00:18:28.712Z,99944.28
2022-09-20T00:20:56.537Z,99948.72
2022-09-20T00:23:24.395Z,99942.09
2022-09-20T00:25:58.308Z,99948.13
2022-09-20T00:28:27.234Z,99950.63
2022-09-20T00:30:56.301Z,99950.19
2022-09-20T00:33:26.339Z,99951.81
2022-09-20T00:35:53.130Z,99949.41
2022-09-20T00:38:20.978Z,99953.63
2022-09-20T00:40:48.758Z,99958.09
2022-09-20T00:43:19.149Z,99965.81
2022-09-20T00:45:50.472Z,99968.66
2022-09-20T00:48:26.535Z,99960.72
2022-09-20T00:50:59.256Z,99963.34
2022-09-20T00:53:30.232Z,99953.84
2022-09-20T00:56:02.060Z,99962.94
2022-09-20T00:58:34.121Z,99962.56
2022-09-20T01:01:02.087Z,99962.34
2022-09-20T01:03:33.658Z,99955.63
2022-09-20T01:06:05.050Z,99951.81
2022-09-20T01:08:35.294Z,99955.84
2022-09-20T01:11:03.737Z,99962.94
2022-09-20T01:13:32.892Z,99957.03
2022-09-20T01:16:03.637Z,99947.34
2022-09-20T01:18:34.621Z,99958.50
2022-09-20T01:21:03.593Z,99953.41
2022-09-20T01:23:45.023Z,99953.84
2022-09-20T01:26:39.289Z,99955.47
2022-09-20T01:29:20.409Z,99957.88
2022-09-20T01:31:54.594Z,99955.47
2022-09-20T01:34:29.560Z,99959.31
2022-09-20T01:37:06.152Z,99959.50
2022-09-20T01:39:43.969Z,99966.56
2022-09-20T01:42:14.108Z,99963.34
2022-09-20T01:44:53.272Z,99963.72
2022-09-20T01:47:31.722Z,99957.25
2022-09-20T01:50:08.561Z,99959.09
2022-09-20T01:53:16.013Z,99955.66
2022-09-20T01:56:02.402Z,99955.88
2022-09-20T01:59:25.026Z,99956.28
2022-09-20T02:02:12.570Z,99958.13
2022-09-20T02:05:13.134Z,99968.69
2022-09-20T02:08:17.592Z,99968.69
2022-09-20T02:11:07.082Z,99958.75
2022-09-20T02:13:51.672Z,99958.97
2022-09-20T02:16:37.349Z,99960.78
2022-09-20T02:19:28.634Z,99963.63
2022-09-20T02:22:11.231Z,99962.00
2022-09-20T02:24:46.764Z,99962.81
2022-09-20T02:27:24.178Z,99953.09
2022-09-20T02:30:05.607Z,99963.63
2022-09-20T02:32:47.702Z,99966.44
2022-09-20T02:35:27.192Z,99969.06
2022-09-20T02:38:26.806Z,99963.59
2022-09-20T02:41:15.304Z,99962.97
2022-09-20T02:43:52.976Z,99966.41
2022-09-20T02:46:28.632Z,99955.47
2022-09-20T02:49:03.646Z,99966.00
2022-09-20T02:51:40.942Z,99956.91
2022-09-20T02:54:23.395Z,99969.44
2022-09-20T02:57:00.935Z,99970.69
2022-09-20T02:59:36.530Z,99967.41
2022-09-20T03:02:12.023Z,99967.41
2022-09-20T03:04:56.577Z,99970.06
2022-09-20T03:07:33.417Z,99966.41
2022-09-20T03:10:12.302Z,99974.88
2022-09-20T03:12:53.549Z,99972.06
2022-09-20T03:15:30.621Z,99976.28
2022-09-20T03:18:08.640Z,99972.66
2022-09-20T03:20:48.048Z,99974.66
2022-09-20T03:23:33.046Z,99975.44
2022-09-20T03:26:08.324Z,99977.88
2022-09-20T03:28:49.131Z,99977.22
2022-09-20T03:31:31.022Z,99976.22
2022-09-20T03:34:13.250Z,99971.34
2022-09-20T03:36:53.484Z,99979.38
2022-09-20T03:39:47.407Z,99976.94
2022-09-20T03:42:17.645Z,99983.38
2022-09-20T03:45:08.482Z,99980.97
2022-09-20T03:47:55.543Z,99986.41
2022-09-20T03:50:48.114Z,99983.94
2022-09-20T03:53:34.951Z,99981.25
2022-09-20T03:56:35.736Z,99986.31
2022-09-20T03:59:19.222Z,99991.34
2022-09-20T04:02:09.409Z,99983.09
2022-09-20T04:04:45.554Z,99990.75
2022-09-20T04:07:21.294Z,99987.25
2022-09-20T04:10:13.776Z,99986.25
2022-09-20T04:13:00.424Z,99989.47
2022-09-20T04:15:37.903Z,99993.06
2022-09-20T04:18:19.421Z,99988.00
2022-09-20T04:20:52.018Z,99988.38
2022-09-20T04:23:33.217Z,99985.72
2022-09-20T04:26:04.127Z,99987.91
2022-09-20T04:28:40.717Z,99991.78
2022-09-20T04:31:22.339Z,99990.13
2022-09-20T04:33:52.190Z,99987.19
2022-09-20T04:36:36.702Z,99994.66
2022-09-20T04:39:18.202Z,99998.06
2022-09-20T04:42:35.008Z,99989.94
2022-09-20T04:45:31.044Z,100000.69
2022-09-20T04:48:44.957Z,100001.53
2022-09-20T04:51:35.827Z,99997.53
2022-09-20T04:54:36.479Z,100011.31
2022-09-20T04:57:42.315Z,100010.94
2022-09-20T05:00:14.240Z,100008.38
2022-09-20T05:03:13.422Z,100017.28
2022-09-20T05:06:07.557Z,100016.53
2022-09-20T05:09:15.014Z,100018.16
2022-09-20T05:12:18.928Z,100025.84
2022-09-20T05:15:08.182Z,100036.22
2022-09-20T05:18:09.946Z,100030.75
2022-09-20T05:21:20.539Z,100034.63
2022-09-20T05:24:01.192Z,100032.59
2022-09-20T05:26:41.661Z,100035.22
2022-09-20T05:29:16.085Z,100037.13
2022-09-20T05:31:52.617Z,100043.41
2022-09-20T05:34:32.191Z,100041.88
2022-09-20T05:37:05.621Z,100043.38
2022-09-20T05:39:42.917Z,100040.56
2022-09-20T05:42:19.598Z,100046.44
2022-09-20T05:44:58.130Z,100039.97
2022-09-20T05:47:35.979Z,100043.25
2022-09-20T05:50:29.353Z,100055.41
2022-09-20T05:53:05.443Z,100052.81
2022-09-20T05:55:52.873Z,100054.44
2022-09-20T05:58:47.565Z,100054.88
2022-09-20T06:01:21.891Z,100051.00
2022-09-20T06:03:55.806Z,100059.50
2022-09-20T06:06:32.907Z,100056.28
2022-09-20T06:09:19.731Z,100056.50
2022-09-20T06:12:17.973Z,100055.47
2022-09-20T06:14:52.111Z,100062.53
2022-09-20T06:17:28.571Z,100061.94
2022-09-20T06:20:17.188Z,100059.28
2022-09-20T06:22:49.068Z,100065.56
2022-09-20T06:25:22.827Z,100060.31
2022-09-20T06:27:54.658Z,100062.50
2022-09-20T06:30:25.700Z,100063.09
2022-09-20T06:32:58.026Z,100055.75
2022-09-20T06:35:30.259Z,100056.81
2022-09-20T06:38:30.297Z,100061.09
2022-09-20T06:41:15.951Z,100066.16
2022-09-20T06:43:43.701Z,100070.63
2022-09-20T06:46:11.949Z,100068.78
2022-09-20T06:48:40.279Z,100068.19
2022-09-20T06:51:09.667Z,100065.38
2022-09-20T06:53:41.934Z,100070.28
2022-09-20T06:56:14.507Z,100070.28
2022-09-20T06:58:42.262Z,100069.47
2022-09-20T07:01:10.173Z,100082.22
2022-09-20T07:03:38.491Z,100087.06
2022-09-20T07:06:06.635Z,100080.63
2022-09-20T07:08:34.457Z,100079.81
2022-09-20T07:11:06.638Z,100071.69
2022-09-20T07:13:34.408Z,100085.47
2022-09-20T07:16:03.527Z,100078.19
2022-09-20T07:18:33.362Z,100076.16
2022-09-20T07:21:01.339Z,100080.22
2022-09-20T07:23:31.349Z,100076.97
2022-09-20T07:26:00.724Z,100086.69
2022-09-20T07:28:30.568Z,100079.81
2022-09-20T07:30:58.499Z,100081.03
2022-09-20T07:33:26.273Z,100085.00
2022-09-20T07:35:55.793Z,100085.78
2022-09-20T07:38:24.249Z,100084.97
2022-09-20T07:40:57.177Z,100089.25
2022-09-20T07:43:25.541Z,100089.97
2022-09-20T07:45:56.330Z,100094.97
2022-09-20T07:48:25.908Z,100093.13
2022-09-20T07:50:55.100Z,100105.50
2022-09-20T07:53:23.484Z,100103.97
2022-09-20T07:55:58.840Z,100098.81
2022-09-20T07:58:27.149Z,100100.78
2022-09-20T08:00:57.591Z,100099.50
2022-09-20T08:03:26.008Z,100109.91
2022-09-20T08:05:59.917Z,100109.50
2022-09-20T08:08:29.034Z,100103.88
2022-09-20T08:11:06.765Z,100106.13
2022-09-20T08:16:27.981Z,100120.78
2022-09-20T08:18:58.854Z,100120.56
2022-09-20T08:21:28.544Z,100117.13
2022-09-20T08:23:56.600Z,100125.63
2022-09-20T08:26:26.339Z,100122.44
2022-09-20T08:28:56.422Z,100125.53
2022-09-20T08:31:27.215Z,100125.63
2022-09-20T08:33:55.537Z,100127.72
2022-09-20T08:36:24.661Z,100126.53
2022-09-20T08:41:47.759Z,100126.00
2022-09-20T08:44:19.789Z,100132.81
2022-09-20T08:46:51.074Z,100128.84
2022-09-20T08:49:27.254Z,100133.41
2022-09-20T08:51:58.169Z,100137.63
2022-09-20T08:54:32.279Z,100136.91
2022-09-20T08:57:05.535Z,100129.28
2022-09-20T08:59:34.658Z,100132.72
2022-09-20T09:02:03.928Z,100129.66
2022-09-20T09:04:36.704Z,100128.59
2022-09-20T09:07:05.998Z,100128.34
2022-09-20T09:09:37.956Z,100131.94
2022-09-20T09:12:06.957Z,100130.00
2022-09-20T09:14:55.056Z,100130.97
2022-09-20T09:17:27.881Z,100134.25
2022-09-20T09:19:57.479Z,100136.16
2022-09-20T09:22:32.211Z,100137.28
2022-09-20T09:25:32.238Z,100127.84
2022-09-20T09:28:02.614Z,100134.66
2022-09-20T09:30:33.300Z,100135.28
2022-09-20T09:33:29.700Z,100130.53
2022-09-20T09:36:00.214Z,100130.41
2022-09-20T09:38:30.141Z,100125.47
2022-09-20T09:40:59.743Z,100129.66
2022-09-20T09:43:30.176Z,100131.38
2022-09-20T09:46:18.726Z,100136.75
2022-09-20T09:48:50.230Z,100133.88
2022-09-20T09:51:20.725Z,100130.25
2022-09-20T09:53:50.185Z,100132.56
2022-09-20T09:56:47.255Z,100134.19
2022-09-20T09:59:28.388Z,100133.03
2022-09-20T10:02:05.342Z,100127.16
2022-09-20T10:04:41.515Z,100125.22
2022-09-20T10:07:16.084Z,100129.13
2022-09-20T10:10:01.410Z,100122.84
2022-09-20T10:12:45.850Z,100117.84
2022-09-20T10:15:29.732Z,100118.44
2022-09-20T10:18:09.787Z,100117.41
2022-09-20T10:20:53.175Z,100119.53
2022-09-20T10:26:48.154Z,100120.84
2022-09-20T10:29:26.234Z,100120.25
2022-09-20T10:32:03.816Z,100118.69
2022-09-20T10:35:10.776Z,100116.19
2022-09-20T10:37:52.932Z,100113.69
2022-09-20T10:40:50.509Z,100108.47
2022-09-20T10:43:31.058Z,100117.00
2022-09-20T10:46:31.195Z,100115.75
2022-09-20T10:49:05.698Z,100113.91
2022-09-20T10:51:47.209Z,100115.00
2022-09-20T10:54:35.032Z,100108.13
2022-09-20T10:57:18.562Z,100112.59
2022-09-20T10:59:55.642Z,100107.88
2022-09-20T11:02:42.794Z,100111.22
2022-09-20T11:05:31.394Z,100107.31
2022-09-20T11:08:11.976Z,100110.81
2022-09-20T11:10:45.831Z,100107.16
2022-09-20T11:13:27.795Z,100112.22
2022-09-20T11:16:01.652Z,100117.19
2022-09-20T11:18:35.746Z,100122.31
2022-09-20T11:21:09.793Z,100120.09
2022-09-20T11:23:46.600Z,100127.66
2022-09-20T11:26:23.690Z,100123.19
2022-09-20T11:28:55.267Z,100125.94
2022-09-20T11:31:27.508Z,100121.22
2022-09-20T11:34:00.346Z,100124.69
2022-09-20T11:36:33.396Z,100125.28
2022-09-20T11:39:08.531Z,100123.19
2022-09-20T11:41:38.218Z,100126.31
2022-09-20T11:44:12.134Z,100132.41
2022-09-20T11:46:45.331Z,100126.69
2022-09-20T11:49:17.754Z,100127.13
2022-09-20T11:52:10.868Z,100125.56
2022-09-20T11:55:06.367Z,100123.53
2022-09-20T11:57:35.818Z,100116.41
2022-09-20T12:00:08.020Z,100117.97
2022-09-20T12:02:39.276Z,100113.03
2022-09-20T12:05:08.942Z,100116.03
2022-09-20T12:07:40.457Z,100109.28
2022-09-20T12:10:22.802Z,100107.13
2022-09-20T12:12:58.529Z,100113.53
2022-09-20T12:15:30.536Z,100108.31
2022-09-20T12:18:13.482Z,100099.91
2022-09-20T12:21:06.653Z,100107.00
2022-09-20T12:24:02.616Z,100095.63
2022-09-20T12:26:39.849Z,100092.69
2022-09-20T12:29:54.232Z,100090.19
2022-09-20T12:32:55.059Z,100088.16
2022-09-20T12:35:56.994Z,100091.44
2022-09-20T12:38:56.447Z,100096.16
2022-09-20T12:41:28.701Z,100094.81
2022-09-20T12:44:06.779Z,100100.59
2022-09-20T12:46:41.995Z,100101.44
2022-09-20T12:50:01.912Z,100096.81
2022-09-20T12:52:56.359Z,100092.38
2022-09-20T12:55:34.526Z,100093.94
2022-09-20T12:58:05.953Z,100092.41
2022-09-20T13:00:39.003Z,100084.44
2022-09-20T13:03:28.427Z,100089.34
2022-09-20T13:06:26.061Z,100090.50
2022-09-20T13:08:59.174Z,100086.69
2022-09-20T13:11:31.429Z,100088.47
2022-09-20T13:14:02.059Z,100093.06
2022-09-20T13:16:33.226Z,100101.94
2022-09-20T13:19:05.666Z,100097.41
2022-09-20T13:21:35.217Z,100101.13
2022-09-20T13:24:03.531Z,100102.38
2022-09-20T13:26:37.131Z,100098.66
2022-09-20T13:29:10.116Z,100093.06
2022-09-20T13:31:38.119Z,100091.47
2022-09-20T13:34:21.722Z,100095.84
2022-09-20T13:36:56.014Z,100092.13
2022-09-20T13:39:28.324Z,100087.41
2022-09-20T13:42:02.302Z,100097.19
2022-09-20T13:44:34.399Z,100111.69
2022-09-20T13:47:02.601Z,100105.81
2022-09-20T13:49:33.748Z,100110.09
2022-09-20T13:52:21.518Z,100110.91
2022-09-20T13:54:49.334Z,100101.91
2022-09-20T13:57:22.830Z,100109.34
2022-09-20T13:59:52.919Z,100104.69
2022-09-20T14:02:25.824Z,100106.84
2022-09-20T14:04:56.952Z,100100.66
2022-09-20T14:07:28.192Z,100094.78
2022-09-20T14:09:58.209Z,100099.41
2022-09-20T14:12:28.170Z,100096.53
2022-09-20T14:14:56.838Z,100099.03
2022-09-20T14:17:25.873Z,100105.59
2022-09-20T14:19:57.536Z,100109.25
2022-09-20T14:22:28.348Z,100115.88
2022-09-20T14:25:02.718Z,100120.38
2022-09-20T14:27:31.462Z,100131.28
2022-09-20T14:29:59.812Z,100118.47
2022-09-20T14:32:40.430Z,100121.47
2022-09-20T14:35:17.224Z,100114.66
2022-09-20T14:37:47.817Z,100113.78
2022-09-20T14:40:22.810Z,100110.69
2022-09-20T14:42:54.552Z,100103.34
2022-09-20T14:45:25.689Z,100110.53
2022-09-20T14:48:10.323Z,100107.75
2022-09-20T14:50:42.231Z,100115.41
2022-09-20T14:53:26.690Z,100113.09
2022-09-20T14:56:13.229Z,100112.53
2022-09-20T14:59:06.926Z,100111.75
2022-09-20T15:01:37.074Z,100118.38
2022-09-20T15:04:10.297Z,100122.22
2022-09-20T15:06:40.209Z,100115.81
2022-09-20T15:09:11.229Z,100109.66
2022-09-20T15:11:39.519Z,100104.31
2022-09-20T15:14:08.417Z,100104.97
2022-09-20T15:16:36.426Z,100105.94
2022-09-20T15:19:05.786Z,100103.00
2022-09-20T15:21:33.653Z,100108.34
2022-09-20T15:24:03.137Z,100102.59
2022-09-20T15:26:32.903Z,100108.22
2022-09-20T15:29:00.891Z,100112.09
2022-09-20T15:31:29.116Z,100108.22
2022-09-20T15:33:56.932Z,100111.09
2022-09-20T15:36:24.731Z,100105.72
2022-09-20T15:38:54.892Z,100104.09
2022-09-20T15:41:27.964Z,100105.13
2022-09-20T15:43:58.377Z,100098.66
2022-09-20T15:46:27.575Z,100108.44
2022-09-20T15:48:56.319Z,100113.13
2022-09-20T15:51:24.170Z,100114.31
2022-09-20T15:53:57.961Z,100106.59
2022-09-20T15:56:28.938Z,100110.56
2022-09-20T15:59:00.329Z,100107.94
2022-09-20T16:01:29.854Z,100112.03
2022-09-20T16:03:57.783Z,100110.69
2022-09-20T16:06:26.322Z,100120.78
2022-09-20T16:08:54.330Z,100120.09
2022-09-20T16:11:23.240Z,100125.19
2022-09-20T16:13:56.067Z,100121.16
2022-09-20T16:16:24.015Z,100129.03
2022-09-20T16:19:09.315Z,100129.94
2022-09-20T16:21:39.251Z,100130.38
2022-09-20T16:24:08.981Z,100132.72
2022-09-20T16:26:38.243Z,100135.63
2022-09-20T16:29:08.291Z,100144.38
2022-09-20T16:31:40.232Z,100144.94
2022-09-20T16:34:13.569Z,100145.72
2022-09-20T16:36:43.357Z,100145.00
2022-09-20T16:39:12.823Z,100149.09
2022-09-20T16:41:40.951Z,100149.47
2022-09-20T16:44:10.672Z,100152.59
2022-09-20T16:46:38.652Z,100160.03
2022-09-20T16:49:09.444Z,100163.16
2022-09-20T16:51:39.184Z,100159.03
2022-09-20T16:54:11.708Z,100161.69
2022-09-20T16:56:41.334Z,100157.06
2022-09-20T16:59:10.830Z,100166.91
2022-09-20T17:01:39.829Z,100172.69
2022-09-20T17:04:08.575Z,100170.50
2022-09-20T17:06:39.071Z,100167.81
2022-09-20T17:09:08.062Z,100171.78
2022-09-20T17:11:39.298Z,100170.28
2022-09-20T17:14:07.994Z,100170.16
2022-09-20T17:16:39.208Z,100184.84
2022-09-20T17:19:08.973Z,100183.53
2022-09-20T17:21:39.231Z,100182.19
2022-09-20T17:24:08.415Z,100184.53
2022-09-20T17:26:38.550Z,100187.19
2022-09-20T17:29:10.156Z,100186.06
2022-09-20T17:31:41.779Z,100189.34
2022-09-20T17:34:11.627Z,100193.84
2022-09-20T17:36:41.917Z,100196.31
2022-09-20T17:39:12.278Z,100196.50
2022-09-20T17:41:41.087Z,100200.81
2022-09-20T17:44:10.125Z,100211.31
2022-09-20T17:46:40.771Z,100207.47
2022-09-20T17:49:10.642Z,100206.88
2022-09-20T17:51:41.526Z,100210.66
2022-09-20T17:54:13.858Z,100203.19
2022-09-20T17:56:43.573Z,100206.09
2022-09-20T17:59:12.771Z,100210.16
2022-09-20T18:01:41.978Z,100210.81
2022-09-20T18:04:10.668Z,100224.63
2022-09-20T18:06:42.184Z,100227.69
2022-09-20T18:09:12.518Z,100225.22
2022-09-20T18:11:41.747Z,100222.59
2022-09-20T18:14:11.350Z,100233.34
2022-09-20T18:16:39.682Z,100236.78
2022-09-20T18:19:10.237Z,100233.31
2022-09-20T18:21:40.898Z,100238.63
2022-09-20T18:24:10.669Z,100242.69
2022-09-20T18:26:39.309Z,100252.38
2022-09-20T18:29:09.550Z,100260.13
2022-09-20T18:31:38.765Z,100251.81
2022-09-20T18:34:11.138Z,100258.72
2022-09-20T18:36:40.574Z,100259.75
2022-09-20T18:39:09.030Z,100263.38
2022-09-20T18:41:41.099Z,100263.38
2022-09-20T18:44:09.819Z,100267.25
2022-09-20T18:46:39.157Z,100265.84
2022-09-20T18:49:09.674Z,100268.06
2022-09-20T18:51:39.935Z,100277.19
2022-09-20T18:54:10.193Z,100271.94
2022-09-20T18:56:39.942Z,100277.38
2022-09-20T18:59:09.802Z,100288.56
2022-09-20T19:02:14.400Z,100284.91
2022-09-20T19:05:16.838Z,100284.28
2022-09-20T19:08:05.311Z,100294.63
2022-09-20T19:10:42.950Z,100284.50
2022-09-20T19:13:26.983Z,100294.63
2022-09-20T19:16:07.340Z,100303.56
2022-09-20T19:18:58.894Z,100298.09
2022-09-20T19:21:36.613Z,100306.75
2022-09-20T19:24:17.059Z,100307.16
2022-09-20T19:26:45.931Z,100316.25
2022-09-20T19:29:19.763Z,100306.09
2022-09-20T19:31:49.502Z,100320.09
2022-09-20T19:34:21.536Z,100318.31
2022-09-20T19:37:18.844Z,100331.84
2022-09-20T19:40:04.569Z,100328.63
2022-09-20T19:42:43.290Z,100332.50
2022-09-20T19:45:21.963Z,100331.69
2022-09-20T19:48:01.980Z,100328.25
2022-09-20T19:50:36.117Z,100323.19
2022-09-20T19:53:06.139Z,100327.81
2022-09-20T19:55:35.033Z,100329.03
2022-09-20T19:58:03.904Z,100326.75
2022-09-20T20:00:32.451Z,100317.84
2022-09-20T20:03:01.234Z,100322.72
2022-09-20T20:05:29.720Z,100332.63
2022-09-20T20:08:14.024Z,100327.94
2022-09-20T20:10:54.608Z,100325.88
2022-09-20T20:13:50.726Z,100331.50
2022-09-20T20:16:25.192Z,100332.50
2022-09-20T20:19:06.938Z,100336.28
2022-09-20T20:21:46.339Z,100342.59
2022-09-20T20:24:27.903Z,100339.56
2022-09-20T20:26:55.753Z,100341.16
2022-09-20T20:29:23.658Z,100343.56
2022-09-20T20:31:51.488Z,100346.59
2022-09-20T20:34:20.579Z,100348.59
2022-09-20T20:36:48.426Z,100355.34
2022-09-20T20:39:16.648Z,100353.28
2022-09-20T20:41:52.484Z,100347.44
2022-09-20T20:44:20.831Z,100345.25
2022-09-20T20:46:48.674Z,100355.72
2022-09-20T20:49:17.585Z,100358.41
2022-09-20T20:51:45.363Z,100349.41
2022-09-20T20:54:13.174Z,100350.84
2022-09-20T20:56:41.080Z,100362.66
2022-09-20T20:59:10.199Z,100356.59
2022-09-20T21:01:39.618Z,100361.53
2022-09-20T21:04:07.906Z,100353.44
2022-09-20T21:06:37.333Z,100359.53
2022-09-20T21:09:06.393Z,100368.34
2022-09-20T21:11:36.222Z,100367.94
2022-09-20T21:14:06.632Z,100361.63
2022-09-20T21:16:38.580Z,100361.16
2022-09-20T21:19:09.678Z,100372.06
2022-09-20T21:21:39.676Z,100370.66
2022-09-20T21:24:09.738Z,100371.31
2022-09-20T21:26:39.804Z,100375.16
2022-09-20T21:29:09.097Z,100372.22
2022-09-20T21:31:41.570Z,100381.53
2022-09-20T21:34:12.413Z,100379.22
2022-09-20T21:36:41.585Z,100382.31
2022-09-20T21:39:09.655Z,100384.75
2022-09-20T21:41:39.361Z,100383.34
2022-09-20T21:44:09.846Z,100386.16
2022-09-20T21:46:40.462Z,100381.59
2022-09-20T21:49:09.620Z,100384.50
2022-09-20T21:51:38.304Z,100393.19
2022-09-20T21:54:06.718Z,100386.69
2022-09-20T21:56:36.298Z,100388.06
2022-09-20T21:59:07.162Z,100388.59
2022-09-20T22:01:37.043Z,100396.03
2022-09-20T22:04:07.968Z,100389.06
2022-09-20T22:06:37.904Z,100391.97
2022-09-20T22:09:07.802Z,100392.06
2022-09-20T22:11:39.415Z,100391.44
2022-09-20T22:14:08.112Z,100395.16
2022-09-20T22:16:38.265Z,100400.31
2022-09-20T22:19:11.184Z,100401.03
2022-09-20T22:21:40.557Z,100398.53
2022-09-20T22:24:10.532Z,100399.69
2022-09-20T22:26:39.899Z,100402.59
2022-09-20T22:29:08.191Z,100399.22
2022-09-20T22:31:37.853Z,100393.81
2022-09-20T22:34:08.297Z,100396.34
2022-09-20T22:36:38.187Z,100393.97
2022-09-20T22:39:07.569Z,100397.25
2022-09-20T22:41:36.173Z,100395.88
2022-09-20T22:44:04.313Z,100396.41
2022-09-20T22:46:33.510Z,100392.88
2022-09-20T22:49:01.799Z,100401.34
2022-09-20T22:51:33.300Z,100396.66
2022-09-20T22:54:01.568Z,100396.72
2022-09-20T22:56:31.233Z,100398.19
2022-09-20T22:59:01.050Z,100400.00
2022-09-20T23:01:30.683Z,100395.38
2022-09-20T23:04:00.906Z,100403.41
2022-09-20T23:06:31.760Z,100406.41
2022-09-20T23:09:02.027Z,100405.47
2022-09-20T23:11:30.421Z,100401.56
2022-09-20T23:13:59.733Z,100398.09
2022-09-20T23:16:29.475Z,100407.03
2022-09-20T23:18:59.311Z,100416.84
2022-09-20T23:21:27.576Z,100412.66
2022-09-20T23:23:58.280Z,100407.88
2022-09-20T23:26:27.666Z,100410.38
2022-09-20T23:28:57.391Z,100413.00
2022-09-20T23:31:26.264Z,100409.09
2022-09-20T23:33:56.282Z,100409.28
2022-09-20T23:36:25.405Z,100411.44
2022-09-20T23:38:53.206Z,100412.78
2022-09-20T23:41:24.124Z,100410.78
2022-09-20T23:43:52.562Z,100410.25
2022-09-20T23:46:21.807Z,100412.94
2022-09-20T23:48:50.463Z,100408.97
2022-09-20T23:51:20.152Z,100409.63
2022-09-20T23:53:48.173Z,100411.25
2022-09-20T23:56:16.157Z,100408.47
2022-09-20T23:58:45.903Z,100414.72
